1996 Very Intense Tropical Cyclone BELLAMINE:MELANIE (1996302S07095)


IBTrACS version v04r00. Visit IBTrACS website for data access.
Please direct all questions to the IBTrACS Q and A forum

Storm track - Intensity - Wind Radii - Intensity Data - Source Data - All data

Summary Information

Satellite image near maximum intensity
Storm ID 1996302S07095
Start Oct 28 00Z
Max Intensity 125 kt (Nov 7 00Z), 920 mb (Nov 4 03Z)
End Nov 12 12Z
ATCF IDs SH051997
Track status Best track data.

Storm track plot

Map of storm track

Intensity plots

Map of storm track

Radial wind information

Map of storm track

Position and Intensity Table

BASIN ISO_TIME_________ NATURE LAT LON WMO WIND WMO PRES USA WIND REUNION WIND REUNION PRES BOM WIND BOM PRES NEUMANN WIND
degrees north degrees east kts mb kts kts mb kts mb kts
SI 1996-10-28 00:00:00 TS -6.70 94.80 20 20
SI 03:00:00 TS -6.96 94.95 20 20
SI 06:00:00 TS -7.20 95.10 20 20
SI 09:00:00 TS -7.41 95.25 20 20
SI 10:00:00 TS -7.65 95.58 25 1002 20 25 1002 20
SI 12:00:00 TS -7.91 95.86 20 25 1001 20
SI 15:00:00 TS -8.17 96.09 22 25 1001 22
SI 18:00:00 TS -8.41 96.25 25 25 1000 25
SI 21:00:00 TS -8.55 96.29 25 25 1000 25
SI 22:00:00 TS -8.61 96.31 25 1000 25 25 1000 25
SI 1996-10-29 00:00:00 TS -8.82 96.36 25 25 1000 25 1000 25
SI 03:00:00 TS -9.08 96.39 27 25 1000 25 1000 27
SI 06:00:00 TS -9.32 96.37 30 25 1000 25 1000 30
SI 09:00:00 TS -9.54 96.32 30 25 1000 25 1000 30
SI 10:00:00 TS -9.60 96.30 25 1000 30 25 1000 25 1000 30
SI 12:00:00 TS -9.71 96.26 30 25 1000 25 1000 30
SI 15:00:00 TS -9.88 96.20 30 25 1000 25 1000 30
SI 18:00:00 TS -10.03 96.16 30 25 1000 25 1000 30
SI 21:00:00 TS -10.11 96.13 32 25 1000 25 1000 32
SI 22:00:00 TS -10.13 96.11 25 1000 33 25 1000 25 1000 33
SI 1996-10-30 00:00:00 TS -10.16 96.08 35 25 1000 25 1000 35
SI 03:00:00 TS -10.21 96.01 35 25 1000 25 1000 35
SI 06:00:00 TS -10.25 95.91 35 25 1000 25 1000 35
SI 07:00:00 TS -10.26 95.88 25 1000 35 25 999 25 1000 35
SI 09:00:00 TS -10.28 95.82 35 27 998 28 998 35
SI 10:00:00 TS -10.29 95.79 30 998 35 28 997 30 998 35
SI 12:00:00 TS -10.30 95.73 35 30 997 30 998 35
SI 15:00:00 TS -10.31 95.67 35 30 997 30 998 35
SI 18:00:00 TS -10.29 95.61 35 30 997 30 998 35
SI 21:00:00 TS -10.25 95.51 37 30 997 30 998 37
SI 22:00:00 TS -10.23 95.47 30 998 38 30 997 30 998 38
SI 1996-10-31 00:00:00 TS -10.18 95.39 40 30 997 30 998 40
SI 01:00:00 TS -10.16 95.35 30 998 40 30 997 30 998 40
SI 03:00:00 TS -10.12 95.28 42 30 997 30 998 42
SI 06:00:00 TS -10.02 95.14 45 30 997 30 998 45
SI 09:00:00 TS -9.90 94.91 45 30 996 30 998 45
SI 10:00:00 TS -9.86 94.83 30 998 45 30 995 30 998 45
SI 12:00:00 TS -9.77 94.64 45 30 995 31 997 45
SI 15:00:00 TS -9.66 94.36 45 32 993 34 995 45
SI 16:00:00 TS -9.62 94.25 35 995 45 33 992 35 995 45
SI 18:00:00 TS -9.52 93.99 45 35 992 36 993 45
SI 21:00:00 TS -9.36 93.50 47 35 991 39 990 47
SI 22:00:00 TS -9.31 93.32 40 990 48 35 990 40 990 48
SI 1996-11-01 00:00:00 TS -9.21 92.96 50 35 990 40 990 50
SI 01:00:00 TS -9.16 92.78 40 990 50 35 989 40 990 50
SI 03:00:00 TS -9.09 92.40 52 37 988 40 990 52
SI 04:00:00 TS -9.06 92.21 40 990 53 38 987 40 990 53
SI 06:00:00 TS -9.00 91.83 55 40 987 40 990 55
SI 09:00:00 TS -8.90 91.31 57 42 985 40 990 57
SI 10:00:00 TS -8.87 91.14 40 990 58 43 984 40 990 58
SI 12:00:00 TS -8.82 90.78 60 45 984 40 990 60
SI 15:00:00 TS -8.77 90.19 62 47 982 40 990 62
SI 16:00:00 TS -8.76 89.99 40 990 63 48 981 40 990 63
SI 18:00:00 TS -8.75 89.63 50 980 65 50 980 43 988 65
SI 21:00:00 TS -8.74 89.21 65 52 977 48 985 65
SI 22:00:00 TS -8.74 89.09 65 53 976 50 985 65
SI 1996-11-02 00:00:00 TS -8.75 88.86 55 975 65 55 975 50 985 65
SI 01:00:00 TS -8.76 88.73 65 55 974 50 985 65
SI 03:00:00 TS -8.78 88.49 65 57 972 50 985 65
SI 04:00:00 TS -8.79 88.38 65 58 971 50 985 65
SI 06:00:00 TS -8.83 88.18 60 970 65 60 970 51 983 65
SI 09:00:00 TS -8.91 87.92 65 60 970 54 980 65
SI 10:00:00 TS -8.94 87.85 65 60 970 55 980 65
SI 12:00:00 TS -9.02 87.71 60 970 65 60 970 58 977 65
SI 15:00:00 TS -9.16 87.50 65 60 970 63 973 65
SI 18:00:00 TS -9.33 87.33 60 970 65 60 970 68 970 65
SI 21:00:00 TS -9.51 87.20 65 62 967 73 966 65
SI 22:00:00 TS -9.58 87.16 65 63 966 75 965 65
SI 1996-11-03 00:00:00 TS -9.65 87.06 65 965 65 65 965 76 963 65
SI 03:00:00 TS -9.78 86.86 67 67 960 79 960 67
SI 04:00:00 TS -9.84 86.79 68 68 958 80 960 68
SI 06:00:00 TS -10.01 86.66 70 955 70 70 955 80 956 70
SI 07:00:00 TS -10.08 86.60 71 70 954 80 955 71
SI 09:00:00 TS -10.15 86.47 75 72 952 83 951 75
SI 10:00:00 TS -10.17 86.41 76 73 951 85 950 76
SI 12:00:00 TS -10.21 86.26 75 950 80 75 950 88 946 80
SI 15:00:00 TS -10.26 86.01 85 80 945 93 941 85
SI 16:00:00 TS -10.28 85.93 86 81 943 95 940 86
SI 18:00:00 TS -10.31 85.79 85 940 90 85 940 98 935 90
SI 21:00:00 TS -10.36 85.62 95 87 935 103 927 95
SI 22:00:00 TS -10.38 85.57 96 88 933 105 925 96
SI 1996-11-04 00:00:00 TS -10.41 85.48 90 930 100 90 930 106 923 100
SI 03:00:00 TS -10.42 85.35 100 92 927 109 920 100
SI 04:00:00 TS -10.43 85.31 100 93 926 110 920 100
SI 06:00:00 TS -10.43 85.23 95 925 100 95 925 110 920 100
SI 09:00:00 TS -10.45 85.14 100 95 925 110 920 100
SI 10:00:00 TS -10.46 85.11 100 95 925 110 920 100
SI 12:00:00 TS -10.48 85.06 95 925 100 95 925 100
SI 15:00:00 TS -10.50 85.00 105 95 925 105
SI 18:00:00 TS -10.53 84.92 95 925 110 95 925 110
SI 21:00:00 TS -10.57 84.78 110 92 927 110
SI 1996-11-05 00:00:00 TS -10.62 84.59 90 930 110 90 930 110
SI 01:00:00 TS -10.64 84.52 110 89 931 95 945 110
SI 03:00:00 TS -10.66 84.37 110 87 935 88 948 110
SI 04:00:00 TS -10.67 84.28 110 86 936 85 950 110
SI 06:00:00 TS -10.71 84.10 85 940 110 85 940 81 953 110
SI 07:00:00 TS -10.74 84.01 110 84 940 80 955 110
SI 09:00:00 TS -10.82 83.83 112 82 942 83 951 112
SI 10:00:00 TS -10.86 83.74 113 81 943 85 950 113
SI 12:00:00 TS -10.93 83.55 80 945 115 80 945 85 949 115
SI 15:00:00 TS -11.01 83.24 115 80 945 87 947 115
SI 18:00:00 TS -11.10 82.90 80 945 115 80 945 88 946 115
SI 21:00:00 TS -11.22 82.54 110 77 947 89 945 110
SI 22:00:00 TS -11.26 82.41 108 76 948 90 945 108
SI 1996-11-06 00:00:00 TS -11.34 82.16 75 950 105 75 950 92 942 105
SI 03:00:00 TS -11.42 81.79 105 77 947 95 939 105
SI 06:00:00 TS -11.49 81.41 80 945 105 80 945 98 936 105
SI 07:00:00 TS -11.53 81.29 105 80 945 100 935 105
SI 09:00:00 TS -11.60 81.04 105 80 945 103 931 105
SI 10:00:00 TS -11.64 80.92 105 80 945 105 930 105
SI 12:00:00 TS -11.72 80.66 80 945 105 80 945 103 931 105
SI 15:00:00 TS -11.82 80.22 110 82 942 100 934 110
SI 16:00:00 TS -11.86 80.06 111 83 941 100 935 111
SI 18:00:00 TS -11.97 79.73 85 940 115 85 940 115
SI 21:00:00 TS -12.14 79.29 120 87 935 120
SI 1996-11-07 00:00:00 TS -12.33 78.87 90 930 125 90 930 125
SI 03:00:00 TS -12.48 78.47 125 92 927 125
SI 06:00:00 TS -12.67 78.10 95 925 125 95 925 125
SI 09:00:00 TS -12.94 77.73 122 95 925 122
SI 12:00:00 TS -13.27 77.40 95 925 120 95 925 120
SI 15:00:00 TS -13.62 77.09 120 95 925 120
SI 18:00:00 TS -14.00 76.87 95 925 120 95 925 120
SI 21:00:00 TS -14.38 76.74 117 92 927 117
SI 1996-11-08 00:00:00 TS -14.73 76.70 90 930 115 90 930 115
SI 03:00:00 TS -15.04 76.71 112 87 935 112
SI 06:00:00 TS -15.33 76.80 85 940 110 85 940 110
SI 09:00:00 TS -15.62 76.93 110 82 942 110
SI 12:00:00 TS -15.93 77.10 80 945 110 80 945 110
SI 15:00:00 TS -16.33 77.24 107 75 950 107
SI 18:00:00 TS -16.77 77.43 70 955 105 70 955 105
SI 21:00:00 TS -17.20 77.73 102 65 962 102
SI 1996-11-09 00:00:00 TS -17.67 78.10 60 970 100 60 970 100
SI 03:00:00 TS -18.19 78.49 95 57 972 95
SI 06:00:00 TS -18.70 78.87 55 975 90 55 975 90
SI 09:00:00 TS -19.09 79.20 85 52 977 85
SI 12:00:00 TS -19.50 79.43 50 980 80 50 980 80
SI 15:00:00 TS -20.07 79.57 72 47 982 72
SI 18:00:00 TS -20.63 79.60 45 984 65 45 984 65
SI 21:00:00 TS -21.08 79.60 57 42 985 57
SI 1996-11-10 00:00:00 TS -21.40 79.50 40 987 50 40 987 50
SI 03:00:00 TS -21.60 79.27 47 35 991 47
SI 06:00:00 TS -21.70 79.00 30 995 45 30 995 45
SI 09:00:00 TS -21.74 78.80 42 27 997 42
SI 12:00:00 TS -21.77 78.60 25 1000 40 25 1000 40
SI 15:00:00 TS -21.87 78.34 37 22 1001 37
SI 18:00:00 TS -22.00 78.07 20 1002 35 20 1002 35
SI 21:00:00 TS -22.11 77.87 32 20 1003 32
SI 1996-11-11 00:00:00 TS -22.23 77.60 20 1004 30 20 1004 30
SI 03:00:00 TS -22.38 77.14 27 20 1004 27
SI 06:00:00 TS -22.53 76.63 20 1005 25 20 1005 25
SI 09:00:00 TS -22.67 76.21 25 20 1006 25
SI 12:00:00 TS -22.77 75.87 20 1007 25 20 1007 25
SI 15:00:00 TS -22.78 75.60 22 20 1007 22
SI 18:00:00 TS -22.81 75.37 20 1008 20 20 1008 20
SI 21:00:00 TS -22.90 75.17 20 20 1008 20
SI 1996-11-12 00:00:00 TS -23.02 74.96 20 1008 20 20 1008 20
SI 03:00:00 TS -23.15 74.65 17 17
SI 06:00:00 TS -23.20 74.50 15 15
SI 09:00:00 TS -23.25 74.35 15 15
SI 12:00:00 TS -23.30 74.20 15 15

Source Information

Agency Information
USA bsh051997.txt
TOKYO
CMA
HKO
NEWDELHI
REUNION WMO-Best-Tracks.txt:Line=17615:bellamine
BOM IDCKMSTM0S.csv:Line=18944:MELANIE
NADI
WELLINGTON
DS824
TD9636
TD9635
NEUMANN tracks.sh:Storm=1069:MELANIE/BELL:AMINEBSH051997:JTWC&BM852
MLC

All available IBTrACS Data

SEASON BASIN SUBBASIN ISO_TIME_________ NATURE LAT LON WMO WIND WMO PRES WMO AGENCY DIST2LAND LANDFALL IFLAG USA AGENCY USA ATCF_ID USA LAT USA LON USA WIND USA SSHS REUNION LAT REUNION LON REUNION TYPE REUNION WIND REUNION PRES REUNION TNUM REUNION CI BOM LAT BOM LON BOM TYPE BOM WIND BOM PRES BOM CI BOM ROCI BOM EYE BOM POS_METHOD BOM PRES_METHOD NEUMANN LAT NEUMANN LON NEUMANN CLASS NEUMANN WIND STORM SPEED STORM DIR
Year degrees north degrees east kts mb km km degrees north degrees east kts 1 degrees north degrees east kts mb 1 1 degrees north degrees east kts mb 1 nmile nmile degrees north degrees east kts kts degrees
1997 SI WA 1996-10-28 00:00:00 TS -6.70 94.80 721 721 O___________O_ jtwc_sh SH051997 -6.70 94.80 20 -1 -6.70 94.80 TC 20 6 151
1997 SI WA 03:00:00 TS -6.96 94.95 741 734 P___________P_ SH051997 -6.96 94.95 20 -1 -6.96 94.95 TC 20 6 149
1997 SI WA 06:00:00 TS -7.20 95.10 746 746 O___________O_ jtwc_sh SH051997 -7.20 95.10 20 -1 -7.20 95.10 TC 20 5 146
1997 SI WA 09:00:00 TS -7.41 95.25 753 753 P___________P_ SH051997 -7.41 95.25 20 -1 -7.41 95.25 TC 20 10 134
1997 SI WA 10:00:00 TS -7.65 95.58 25 1002 bom 765 760 P_____O_____P_ SH051997 -7.47 95.30 20 -1 -9.10 97.80 20 25 1002 1.50 134 3 5 -7.47 95.30 TC 20 16 130
1997 SI WA 12:00:00 TS -7.91 95.86 770 770 O_____P_____O_ jtwc_sh SH051997 -7.60 95.40 20 -1 -9.13 97.69 20 25 1001 134 -7.60 95.40 TC 20 9 136
1997 SI WA 15:00:00 TS -8.17 96.09 790 790 P_____P_____P_ SH051997 -7.80 95.55 22 -1 -9.17 97.52 20 25 1001 134 -7.80 95.55 TC 22 6 142
1997 SI WA 18:00:00 TS -8.41 96.25 806 801 O_____P_____O_ jtwc_sh SH051997 -8.00 95.70 25 -1 -9.22 97.34 20 25 1000 134 -8.00 95.70 TC 25 4 152
1997 SI WA 21:00:00 TS -8.55 96.29 822 822 P_____P_____P_ SH051997 -8.19 95.86 25 -1 -9.28 97.16 20 25 1000 134 -8.19 95.86 TC 25 3 164
1997 SI WA 22:00:00 TS -8.61 96.31 25 1000 bom 822 822 P_____O_____P_ SH051997 -8.26 95.91 25 -1 -9.30 97.10 20 25 1000 2.00 134 3 5 -8.26 95.91 TC 25 6 166
1997 SI WA 1996-10-29 00:00:00 TS -8.82 96.36 839 839 O____OP_____O_ jtwc_sh SH051997 -8.40 96.00 25 -1 -10.10 96.80 2 25 1000 2.00 2.00 -9.34 96.98 20 25 1000 134 -8.40 96.00 TC 25 6 170
1997 SI WA 03:00:00 TS -9.08 96.39 867 867 P____PP_____P_ SH051997 -8.63 96.12 27 -1 -10.16 96.64 2 25 1000 -9.42 96.79 20 25 1000 134 -8.63 96.12 TC 27 5 179
1997 SI WA 06:00:00 TS -9.32 96.37 881 881 O____OP_____O_ jtwc_sh SH051997 -8.90 96.20 30 -1 -10.20 96.50 2 25 1000 2.00 2.00 -9.49 96.61 20 25 1000 134 -8.90 96.20 TC 30 5 188
1997 SI WA 09:00:00 TS -9.54 96.32 905 905 P____PP_____P_ SH051997 -9.20 96.22 30 -1 -10.20 96.39 2 25 1000 -9.57 96.45 20 25 1000 134 -9.20 96.22 TC 30 4 194
1997 SI WA 10:00:00 TS -9.60 96.30 25 1000 bom 912 912 P____PO_____P_ SH051997 -9.30 96.21 30 -1 -10.20 96.36 2 25 1000 -9.60 96.40 20 25 1000 2.00 134 3 5 -9.30 96.21 TC 30 4 197
1997 SI WA 12:00:00 TS -9.71 96.26 920 920 O____OP_____O_ jtwc_sh SH051997 -9.50 96.20 30 -1 -10.20 96.30 2 25 1000 2.00 2.00 -9.65 96.32 20 25 1000 134 -9.50 96.20 TC 30 4 197
1997 SI WA 15:00:00 TS -9.88 96.20 943 943 P____PP_____P_ SH051997 -9.78 96.20 30 -1 -10.25 96.19 2 25 1000 -9.73 96.22 20 25 1000 134 -9.78 96.20 TC 30 3 198
1997 SI WA 18:00:00 TS -10.03 96.16 951 951 O____OP_____O_ jtwc_sh SH051997 -10.00 96.20 30 -1 -10.30 96.10 2 25 1000 2.00 2.00 -9.80 96.13 20 25 1000 134 -10.00 96.20 TC 30 2 200
1997 SI WA 21:00:00 TS -10.11 96.13 967 967 P____PP_____P_ SH051997 -10.13 96.21 32 -1 -10.31 96.05 2 25 1000 -9.88 96.04 20 25 1000 134 -10.13 96.21 TC 32 2 201
1997 SI WA 22:00:00 TS -10.13 96.11 25 1000 bom 967 967 P____PO_____P_ SH051997 -10.16 96.21 33 -1 -10.31 96.04 2 25 1000 -9.90 96.00 20 25 1000 2.00 134 3 5 -10.16 96.21 TC 33 1 219
1997 SI WA 1996-10-30 00:00:00 TS -10.16 96.08 975 975 O____OP_____O_ jtwc_sh SH051997 -10.20 96.20 35 0 -10.30 96.00 2 25 1000 2.00 2.00 -9.96 95.93 20 25 1000 134 -10.20 96.20 TC 35 2 231
1997 SI WA 03:00:00 TS -10.21 96.01 982 982 P____PP_____P_ SH051997 -10.26 96.16 35 0 -10.30 95.91 2 25 1000 -10.04 95.81 20 25 1000 134 -10.26 96.16 TC 35 2 243
1997 SI WA 06:00:00 TS -10.25 95.91 990 990 O____OP_____O_ jtwc_sh SH051997 -10.30 96.10 35 0 -10.30 95.80 2 25 1000 2.00 2.00 -10.09 95.66 20 25 1000 134 -10.30 96.10 TC 35 2 248
1997 SI WA 07:00:00 TS -10.26 95.88 25 1000 bom 998 998 P____PO_____P_ SH051997 -10.32 96.09 35 0 -10.30 95.76 2 25 999 -10.10 95.60 20 25 1000 2.00 134 3 5 -10.32 96.09 TC 35 2 252
1997 SI WA 09:00:00 TS -10.28 95.82 1006 1006 P____PP_____P_ SH051997 -10.36 96.06 35 0 -10.30 95.69 2 27 998 -10.10 95.46 20 28 998 134 -10.36 96.06 TC 35 2 253
1997 SI WA 10:00:00 TS -10.29 95.79 30 998 bom 1006 1006 P____PO_____P_ SH051997 -10.37 96.04 35 0 -10.30 95.66 2 28 997 -10.10 95.40 20 30 998 2.50 134 3 5 -10.37 96.04 TC 35 2 256
1997 SI WA 12:00:00 TS -10.30 95.73 1014 1014 O____OP_____O_ jtwc_sh SH051997 -10.40 96.00 35 0 -10.30 95.60 2 30 997 2.50 2.50 -10.10 95.33 20 30 998 134 -10.40 96.00 TC 35 1 259
1997 SI WA 15:00:00 TS -10.31 95.67 1014 1014 P____PP_____P_ SH051997 -10.41 95.92 35 0 -10.31 95.55 2 30 997 -10.10 95.30 20 30 998 134 -10.41 95.92 TC 35 1 273
1997 SI WA 18:00:00 TS -10.29 95.61 1022 1022 O____OP_____O_ jtwc_sh SH051997 -10.40 95.80 35 0 -10.30 95.50 2 30 997 2.50 2.50 -10.08 95.32 20 30 998 134 -10.40 95.80 TC 35 2 290
1997 SI WA 21:00:00 TS -10.25 95.51 1021 1021 P____PP_____P_ SH051997 -10.36 95.65 37 0 -10.26 95.41 2 30 997 -10.03 95.32 20 30 998 134 -10.36 95.65 TC 37 2 295
1997 SI WA 22:00:00 TS -10.23 95.47 30 998 bom 1021 1021 P____PO_____P_ SH051997 -10.34 95.60 38 0 -10.24 95.37 2 30 997 -10.00 95.30 20 30 998 2.50 134 3 5 -10.34 95.60 TC 38 3 298
1997 SI WA 1996-10-31 00:00:00 TS -10.18 95.39 1026 1026 O____OP_____O_ jtwc_sh SH051997 -10.30 95.50 40 0 -10.20 95.30 2 30 997 2.50 2.50 -9.94 95.24 20 30 998 151 -10.30 95.50 TC 40 3 300
1997 SI WA 01:00:00 TS -10.16 95.35 30 998 bom 1026 1020 P____PO_____P_ SH051997 -10.29 95.47 40 0 -10.19 95.27 2 30 997 -9.90 95.20 20 30 998 2.50 161 3 5 -10.29 95.47 TC 40 2 303
1997 SI WA 03:00:00 TS -10.12 95.28 1020 1015 P____PP_____P_ SH051997 -10.26 95.41 42 0 -10.16 95.22 2 30 997 -9.79 95.09 20 30 998 161 -10.26 95.41 TC 42 3 304
1997 SI WA 06:00:00 TS -10.02 95.14 1019 1014 O____OP_____O_ jtwc_sh SH051997 -10.20 95.30 45 0 -10.10 95.10 2 30 997 2.50 2.50 -9.58 94.84 20 30 998 161 -10.20 95.30 TC 45 4 301
1997 SI WA 09:00:00 TS -9.90 94.91 1019 1019 P____PP_____P_ SH051997 -10.11 95.12 45 0 -10.01 94.89 2 30 996 -9.37 94.52 20 30 998 161 -10.11 95.12 TC 45 5 299
1997 SI WA 10:00:00 TS -9.86 94.83 30 998 bom 1024 1014 P____PO_____P_ SH051997 -10.07 95.05 45 0 -9.98 94.80 2 30 995 -9.30 94.40 20 30 998 2.50 161 3 5 -10.07 95.05 TC 45 6 295
1997 SI WA 12:00:00 TS -9.77 94.64 1024 1014 O____OP_____O_ jtwc_sh SH051997 -10.00 94.90 45 0 -9.90 94.60 2 30 995 2.50 2.50 -9.19 94.16 20 31 997 161 -10.00 94.90 TC 45 6 294
1997 SI WA 15:00:00 TS -9.66 94.36 1025 1021 P____PP_____P_ SH051997 -9.91 94.71 45 0 -9.76 94.27 2 32 993 -9.05 93.75 20 34 995 161 -9.91 94.71 TC 45 6 292
1997 SI WA 16:00:00 TS -9.62 94.25 35 995 bom 1021 1022 P____PO_____P_ SH051997 -9.87 94.63 45 0 -9.71 94.15 2 33 992 -9.00 93.60 30 35 995 3.00 161 3 5 -9.87 94.63 TC 45 8 290
1997 SI WA 18:00:00 TS -9.52 93.99 1028 1028 O____OP_____O_ jtwc_sh SH051997 -9.80 94.40 45 0 -9.60 93.90 3 35 992 3.00 3.00 -8.89 93.27 30 36 993 169 -9.80 94.40 TC 45 9 289
1997 SI WA 21:00:00 TS -9.36 93.50 1049 1046 P____PP_____P_ SH051997 -9.65 93.87 47 0 -9.41 93.52 3 35 991 -8.74 92.76 30 39 990 183 -9.65 93.87 TC 47 10 288
1997 SI WA 22:00:00 TS -9.31 93.32 40 990 bom 1053 1053 P____PO_____P_ SH051997 -9.60 93.65 48 0 -9.34 93.38 3 35 990 -8.70 92.60 30 40 990 3.00 188 3 5 -9.60 93.65 TC 48 11 286
1997 SI WA 1996-11-01 00:00:00 TS -9.21 92.96 1064 1064 O____OP_____O_ jtwc_sh SH051997 -9.50 93.20 50 0 -9.20 93.10 3 35 990 3.00 3.00 -8.62 92.33 30 40 990 188 -9.50 93.20 TC 50 11 285
1997 SI WA 01:00:00 TS -9.16 92.78 40 990 bom 1078 1076 P____PO_____P_ SH051997 -9.46 92.97 50 0 -9.13 92.96 3 35 989 -8.60 92.20 30 40 990 3.00 188 3 5 -9.46 92.97 TC 50 11 282
1997 SI WA 03:00:00 TS -9.09 92.40 1097 1097 P____PP_____P_ SH051997 -9.40 92.50 52 0 -8.98 92.66 3 37 988 -8.59 91.93 30 40 990 188 -9.40 92.50 TC 52 11 280
1997 SI WA 04:00:00 TS -9.06 92.21 40 990 bom 1112 1111 P____PO_____P_ SH051997 -9.37 92.26 53 0 -8.91 92.51 3 38 987 -8.60 91.80 30 40 990 3.00 188 3 5 -9.37 92.26 TC 53 11 279
1997 SI WA 06:00:00 TS -9.00 91.83 1134 1134 O____OP_____O_ jtwc_sh SH051997 -9.30 91.80 55 0 -8.80 92.20 3 40 987 3.50 3.50 -8.60 91.53 30 40 990 188 -9.30 91.80 TC 55 11 280
1997 SI WA 09:00:00 TS -8.90 91.31 1165 1165 P____PP_____P_ SH051997 -9.15 91.19 57 0 -8.71 91.72 3 42 985 -8.60 91.13 30 40 990 188 -9.15 91.19 TC 57 11 280
1997 SI WA 10:00:00 TS -8.87 91.14 40 990 bom 1182 1182 P____PO_____P_ SH051997 -9.10 91.00 58 0 -8.70 91.55 3 43 984 -8.60 91.00 30 40 990 3.00 188 3 5 -9.10 91.00 TC 58 11 279
1997 SI WA 12:00:00 TS -8.82 90.78 1199 1199 O____OP_____O_ jtwc_sh SH051997 -9.00 90.60 60 0 -8.70 91.20 3 45 984 3.50 3.50 -8.60 90.73 30 40 990 196 -9.00 90.60 TC 60 11 276
1997 SI WA 15:00:00 TS -8.77 90.19 1249 1249 P____PP_____P_ SH051997 -8.89 89.91 62 0 -8.73 90.61 3 47 982 -8.60 90.33 30 40 990 210 -8.89 89.91 TC 62 12 274
1997 SI MM 16:00:00 TS -8.76 89.99 40 990 bom 1266 1266 P____PO_____P_ SH051997 -8.85 89.68 63 0 -8.75 90.40 3 48 981 -8.60 90.20 30 40 990 3.00 215 3 5 -8.85 89.68 TC 63 11 273
1997 SI MM 18:00:00 TS -8.75 89.63 50 980 reunion 1294 1294 O____OP_____O_ jtwc_sh SH051997 -8.80 89.30 65 1 -8.80 90.00 3 50 980 4.00 4.00 -8.60 89.93 30 43 988 215 -8.80 89.30 TC 65 9 272
1997 SI MM 21:00:00 TS -8.74 89.21 1330 1330 P____PP_____P_ SH051997 -8.73 88.95 65 1 -8.88 89.43 3 52 977 -8.60 89.53 30 48 985 215 -8.73 88.95 TC 65 8 271
1997 SI MM 22:00:00 TS -8.74 89.09 1339 1339 P____PO_____P_ SH051997 -8.72 88.86 65 1 -8.92 89.25 3 53 976 -8.60 89.40 30 50 985 3.50 215 3 5 -8.72 88.86 TC 65 7 268
1997 SI MM 1996-11-02 00:00:00 TS -8.75 88.86 55 975 reunion 1357 1363 O____OP_____O_ jtwc_sh SH051997 -8.70 88.70 65 1 -9.00 88.90 3 55 975 4.00 4.00 -8.60 89.12 30 50 985 215 -8.70 88.70 TC 65 7 267
1997 SI MM 01:00:00 TS -8.76 88.73 1381 1381 P____PO_____P_ SH051997 -8.69 88.59 65 1 -9.05 88.73 3 55 974 -8.60 89.00 30 50 985 3.50 215 3 5 -8.69 88.59 TC 65 7 266
1997 SI MM 03:00:00 TS -8.78 88.49 1399 1399 P____PP_____P_ SH051997 -8.68 88.38 65 1 -9.15 88.41 3 57 972 -8.60 88.79 30 50 985 215 -8.68 88.38 TC 65 7 264
1997 SI MM 04:00:00 TS -8.79 88.38 1409 1409 P____PO_____P_ SH051997 -8.68 88.28 65 1 -9.20 88.27 3 58 971 -8.60 88.70 30 50 985 3.50 215 3 5 -8.68 88.28 TC 65 6 260
1997 SI MM 06:00:00 TS -8.83 88.18 60 970 reunion 1427 1427 O____OP_____O_ jtwc_sh SH051997 -8.70 88.10 65 1 -9.30 88.00 3 60 970 4.50 4.50 -8.61 88.52 30 51 983 215 -8.70 88.10 TC 65 6 255
1997 SI MM 09:00:00 TS -8.91 87.92 1461 1461 P____PP_____P_ SH051997 -8.78 87.88 65 1 -9.41 87.66 3 60 970 -8.67 88.28 30 54 980 215 -8.78 87.88 TC 65 5 251
1997 SI MM 10:00:00 TS -8.94 87.85 1470 1470 P____PO_____P_ SH051997 -8.81 87.81 65 1 -9.44 87.57 3 60 970 -8.70 88.20 30 55 980 4.00 215 3 5 -8.81 87.81 TC 65 5 241
1997 SI MM 12:00:00 TS -9.02 87.71 60 970 reunion 1485 1485 O____OP_____O_ jtwc_sh SH051997 -8.90 87.70 65 1 -9.50 87.40 3 60 970 4.50 4.50 -8.80 88.03 30 58 977 219 -8.90 87.70 TC 65 5 237
1997 SI MM 15:00:00 TS -9.16 87.50 1516 1516 P____PP_____P_ SH051997 -9.03 87.53 65 1 -9.60 87.17 3 60 970 -9.00 87.77 30 63 973 226 -9.03 87.53 TC 65 5 231
1997 SI MM 18:00:00 TS -9.33 87.33 60 970 reunion 1540 1540 O____OP_____O_ jtwc_sh SH051997 -9.20 87.40 65 1 -9.70 87.00 3 60 970 4.50 4.50 -9.21 87.51 30 68 970 232 -9.20 87.40 TC 65 5 220
1997 SI MM 21:00:00 TS -9.51 87.20 1562 1562 P____PP_____P_ SH051997 -9.44 87.31 65 1 -9.81 86.89 3 62 967 -9.37 87.27 30 73 966 239 -9.44 87.31 TC 65 5 214
1997 SI MM 22:00:00 TS -9.58 87.16 1568 1568 P____PO_____P_ SH051997 -9.53 87.28 65 1 -9.84 86.86 3 63 966 -9.40 87.20 40 75 965 4.50 242 3 5 -9.53 87.28 TC 65 4 224
1997 SI MM 1996-11-03 00:00:00 TS -9.65 87.06 65 965 reunion 1583 1583 O____OP_____O_ jtwc_sh SH051997 -9.70 87.20 65 1 -9.90 86.80 4 65 965 4.50 4.50 -9.32 87.05 40 76 963 242 -9.70 87.20 TC 65 4 235
1997 SI MM 03:00:00 TS -9.78 86.86 1608 1608 P____PP_____P_ SH051997 -9.92 86.97 67 1 -9.96 86.66 4 67 960 -9.31 86.85 40 79 960 242 -9.92 86.97 TC 67 5 235
1997 SI MM 04:00:00 TS -9.84 86.79 1617 1617 P____PO_____P_ SH051997 -9.99 86.88 68 1 -9.97 86.61 4 68 958 -9.40 86.80 40 80 960 5.00 242 3 5 -9.99 86.88 TC 68 6 222
1997 SI MM 06:00:00 TS -10.01 86.66 70 955 reunion 1638 1638 O____OP_____O_ jtwc_sh SH051997 -10.10 86.70 70 1 -10.00 86.50 4 70 955 5.00 5.00 -9.82 86.73 40 80 956 259 -10.10 86.70 TC 70 6 219
1997 SI MM 07:00:00 TS -10.08 86.60 1654 1654 P____PO_____P_ SH051997 -10.15 86.62 71 1 -10.02 86.45 4 70 954 -10.00 86.70 40 80 955 5.00 269 3 5 -10.15 86.62 TC 71 5 232
1997 SI MM 09:00:00 TS -10.15 86.47 1663 1663 P____PP_____P_ SH051997 -10.22 86.45 75 1 -10.05 86.35 4 72 952 -10.10 86.64 40 83 951 269 -10.22 86.45 TC 75 4 244
1997 SI MM 10:00:00 TS -10.17 86.41 1678 1678 P____PO_____P_ SH051997 -10.25 86.37 76 1 -10.07 86.30 4 73 951 -10.10 86.60 40 85 950 5.00 269 3 5 -10.25 86.37 TC 76 4 254
1997 SI MM 12:00:00 TS -10.21 86.26 75 950 reunion 1687 1687 O____OP_____O_ jtwc_sh SH051997 -10.30 86.20 80 1 -10.10 86.20 4 75 950 5.00 5.00 -10.14 86.43 40 88 946 277 -10.30 86.20 TC 80 5 256
1997 SI MM 15:00:00 TS -10.26 86.01 1721 1721 P____PP_____P_ SH051997 -10.37 85.93 85 2 -10.13 86.05 4 80 945 -10.19 86.10 40 93 941 291 -10.37 85.93 TC 85 5 259
1997 SI MM 16:00:00 TS -10.28 85.93 1730 1730 P____PO_____P_ SH051997 -10.38 85.85 86 2 -10.15 86.00 4 81 943 -10.20 86.00 40 95 940 5.50 296 10 3 5 -10.38 85.85 TC 86 4 258
1997 SI MM 18:00:00 TS -10.31 85.79 85 940 reunion 1739 1739 O____OP_____O_ jtwc_sh SH051997 -10.40 85.70 90 2 -10.20 85.90 4 85 940 5.50 5.50 -10.23 85.84 40 98 935 296 -10.40 85.70 TC 90 4 254
1997 SI MM 21:00:00 TS -10.36 85.62 1764 1764 P____PP_____P_ SH051997 -10.41 85.53 95 2 -10.36 85.76 4 87 935 -10.28 85.65 40 103 927 296 -10.41 85.53 TC 95 3 251
1997 SI MM 22:00:00 TS -10.38 85.57 1764 1764 P____PO_____P_ SH051997 -10.41 85.48 96 3 -10.41 85.71 4 88 933 -10.30 85.60 40 105 925 6.00 296 3 5 -10.41 85.48 TC 96 3 251
1997 SI MM 1996-11-04 00:00:00 TS -10.41 85.48 90 930 reunion 1773 1773 O____OP_____O_ jtwc_sh SH051997 -10.40 85.40 100 3 -10.50 85.60 4 90 930 6.00 6.00 -10.34 85.52 40 106 923 304 -10.40 85.40 TC 100 3 258
1997 SI MM 03:00:00 TS -10.42 85.35 1792 1792 P____PP_____P_ SH051997 -10.39 85.29 100 3 -10.52 85.38 4 92 927 -10.39 85.43 40 109 920 318 -10.39 85.29 TC 100 3 265
1997 SI MM 04:00:00 TS -10.43 85.31 1792 1792 P____PO_____P_ SH051997 -10.39 85.26 100 3 -10.52 85.32 4 93 926 -10.40 85.40 40 110 920 6.50 323 9 3 5 -10.39 85.26 TC 100 2 269
1997 SI MM 06:00:00 TS -10.43 85.23 95 925 reunion 1801 1801 O____OP_____O_ jtwc_sh SH051997 -10.40 85.20 100 3 -10.50 85.20 4 95 925 6.00 6.00 -10.41 85.33 40 110 920 323 -10.40 85.20 TC 100 2 262
1997 SI MM 09:00:00 TS -10.45 85.14 1810 1810 P____PP_____P_ SH051997 -10.45 85.10 100 3 -10.49 85.12 4 95 925 -10.40 85.23 40 110 920 323 -10.45 85.10 TC 100 2 256
1997 SI MM 10:00:00 TS -10.46 85.11 1816 1816 P____PO_____P_ SH051997 -10.47 85.07 100 3 -10.49 85.11 4 95 925 -10.40 85.20 40 110 920 6.50 323 9 3 5 -10.47 85.07 TC 100 2 249
1997 SI MM 12:00:00 TS -10.48 85.06 95 925 reunion 1816 1816 O____OP_____O_ jtwc_sh SH051997 -10.50 85.00 100 3 -10.50 85.10 4 95 925 6.00 6.00 -10.42 85.15 40 -10.50 85.00 TC 100 1 247
1997 SI MM 15:00:00 TS -10.50 85.00 1825 1825 P____PP_____P_ SH051997 -10.50 84.91 105 3 -10.54 85.11 4 95 925 -10.46 85.07 40 -10.50 84.91 TC 105 1 251
1997 SI MM 18:00:00 TS -10.53 84.92 95 925 reunion 1835 1835 O____OP_____O_ jtwc_sh SH051997 -10.50 84.80 110 3 -10.60 85.10 4 95 925 5.50 6.00 -10.51 84.99 40 -10.50 84.80 TC 110 2 252
1997 SI MM 21:00:00 TS -10.57 84.78 1850 1850 P____PP_____P_ SH051997 -10.54 84.62 110 3 -10.65 84.99 4 92 927 -10.56 84.89 40 -10.54 84.62 TC 110 3 254
1997 SI MM 1996-11-05 00:00:00 TS -10.62 84.59 90 930 reunion 1869 1869 O____OP_____O_ jtwc_sh SH051997 -10.60 84.40 110 3 -10.70 84.80 4 90 930 5.50 6.00 -10.59 84.76 40 -10.60 84.40 TC 110 4 257
1997 SI MM 01:00:00 TS -10.64 84.52 1878 1878 P____PO_____P_ SH051997 -10.61 84.32 110 3 -10.72 84.73 4 89 931 -10.60 84.70 40 95 945 5.50 350 3 5 -10.61 84.32 TC 110 4 262
1997 SI MM 03:00:00 TS -10.66 84.37 1893 1893 P____PP_____P_ SH051997 -10.64 84.16 110 3 -10.75 84.56 4 87 935 -10.59 84.58 40 88 948 350 -10.64 84.16 TC 110 5 261
1997 SI MM 04:00:00 TS -10.67 84.28 1902 1900 P____PO_____P_ SH051997 -10.66 84.08 110 3 -10.77 84.47 4 86 936 -10.60 84.50 40 85 950 5.00 350 3 5 -10.66 84.08 TC 110 5 258
1997 SI MM 06:00:00 TS -10.71 84.10 85 940 reunion 1900 1897 O____OP_____O_ jtwc_sh SH051997 -10.70 83.90 110 3 -10.80 84.30 4 85 940 5.00 5.50 -10.65 84.31 40 81 953 350 -10.70 83.90 TC 110 6 255
1997 SI MM 07:00:00 TS -10.74 84.01 1897 1897 P____PO_____P_ SH051997 -10.73 83.81 110 3 -10.82 84.24 4 84 940 -10.70 84.20 40 80 955 5.00 350 3 5 -10.73 83.81 TC 110 6 249
1997 SI MM 09:00:00 TS -10.82 83.83 1904 1904 P____PP_____P_ SH051997 -10.79 83.61 112 3 -10.85 84.11 4 82 942 -10.83 84.00 40 83 951 350 -10.79 83.61 TC 112 6 247
1997 SI MM 10:00:00 TS -10.86 83.74 1913 1911 P____PO_____P_ SH051997 -10.83 83.51 113 4 -10.87 84.05 4 81 943 -10.90 83.90 40 85 950 5.00 350 3 5 -10.83 83.51 TC 113 6 248
1997 SI MM 12:00:00 TS -10.93 83.55 80 945 reunion 1909 1909 O____OP_____O_ jtwc_sh SH051997 -10.90 83.30 115 4 -10.90 83.90 4 80 945 5.00 5.50 -11.01 83.69 40 85 949 350 -10.90 83.30 TC 115 6 252
1997 SI MM 15:00:00 TS -11.01 83.24 1915 1913 P____PP_____P_ SH051997 -10.99 83.01 115 4 -10.94 83.58 4 80 945 -11.13 83.35 40 87 947 350 -10.99 83.01 TC 115 7 255
1997 SI MM 18:00:00 TS -11.10 82.90 80 945 reunion 1921 1920 O____OP_____O_ jtwc_sh SH051997 -11.10 82.70 115 4 -11.00 83.20 4 80 945 5.00 5.50 -11.21 83.00 40 88 946 350 -11.10 82.70 TC 115 7 253
1997 SI MM 21:00:00 TS -11.22 82.54 1927 1927 P____PP_____P_ SH051997 -11.26 82.36 110 3 -11.08 82.81 4 77 947 -11.28 82.63 40 89 945 350 -11.26 82.36 TC 110 8 252
1997 SI MM 22:00:00 TS -11.26 82.41 1937 1935 P____PO_____P_ SH051997 -11.31 82.24 108 3 -11.12 82.67 4 76 948 -11.30 82.50 40 90 945 5.00 350 3 5 -11.31 82.24 TC 108 8 253
1997 SI MM 1996-11-06 00:00:00 TS -11.34 82.16 75 950 reunion 1935 1934 O____OP_____O_ jtwc_sh SH051997 -11.40 82.00 105 3 -11.20 82.40 4 75 950 5.00 5.00 -11.34 82.24 40 92 942 350 -11.40 82.00 TC 105 8 256
1997 SI MM 03:00:00 TS -11.42 81.79 1942 1941 P____PP_____P_ SH051997 -11.46 81.65 105 3 -11.34 82.00 4 77 947 -11.40 81.84 40 95 939 350 -11.46 81.65 TC 105 8 258
1997 SI MM 06:00:00 TS -11.49 81.41 80 945 reunion 1951 1951 O____OP_____O_ jtwc_sh SH051997 -11.50 81.30 105 3 -11.50 81.60 4 80 945 5.50 5.50 -11.47 81.43 40 98 936 350 -11.50 81.30 TC 105 8 257
1997 SI MM 07:00:00 TS -11.53 81.29 1951 1950 P____PO_____P_ SH051997 -11.52 81.19 105 3 -11.56 81.47 4 80 945 -11.50 81.30 40 100 935 6.00 350 10 3 5 -11.52 81.19 TC 105 7 253
1997 SI MM 09:00:00 TS -11.60 81.04 1961 1961 P____PP_____P_ SH051997 -11.58 80.97 105 3 -11.66 81.20 4 80 945 -11.57 81.03 40 103 931 350 -11.58 80.97 TC 105 8 253
1997 SI MM 10:00:00 TS -11.64 80.92 1961 1961 P____PO_____P_ SH051997 -11.62 80.86 105 3 -11.72 81.07 4 80 945 -11.60 80.90 40 105 930 6.00 350 3 5 -11.62 80.86 TC 105 8 253
1997 SI MM 12:00:00 TS -11.72 80.66 80 945 reunion 1972 1971 O____OP_____O_ jtwc_sh SH051997 -11.70 80.60 105 3 -11.80 80.80 4 80 945 5.50 5.50 -11.65 80.65 40 103 931 350 -11.70 80.60 TC 105 8 255
1997 SI MM 15:00:00 TS -11.82 80.22 1983 1983 P____PP_____P_ SH051997 -11.84 80.11 110 3 -11.85 80.40 4 82 942 -11.69 80.31 40 100 934 350 -11.84 80.11 TC 110 9 256
1997 SI MM 16:00:00 TS -11.86 80.06 1995 1995 P____PO_____P_ SH051997 -11.89 79.94 111 3 -11.86 80.27 4 83 941 -11.70 80.20 40 100 935 6.00 350 3 5 -11.89 79.94 TC 111 10 253
1997 SI MM 18:00:00 TS -11.97 79.73 85 940 reunion 2008 2008 O____O______O_ jtwc_sh SH051997 -12.00 79.60 115 4 -11.90 80.00 4 85 940 5.50 5.50 40 -12.00 79.60 TC 115 10 250
1997 SI MM 21:00:00 TS -12.14 79.29 2021 2021 P____P______P_ SH051997 -12.20 79.14 120 4 -12.03 79.59 4 87 935 40 -12.20 79.14 TC 120 9 247
1997 SI MM 1996-11-07 00:00:00 TS -12.33 78.87 90 930 reunion 2047 2047 O____O______O_ jtwc_sh SH051997 -12.40 78.70 125 4 -12.20 79.20 4 90 930 6.00 6.00 -12.40 78.70 TC 125 9 247
1997 SI MM 03:00:00 TS -12.48 78.47 2074 2074 P____P______P_ SH051997 -12.53 78.28 125 4 -12.38 78.84 4 92 927 -12.53 78.28 TC 125 8 246
1997 SI MM 06:00:00 TS -12.67 78.10 95 925 reunion 2102 2102 O____O______O_ jtwc_sh SH051997 -12.70 77.90 125 4 -12.60 78.50 4 95 925 6.00 6.00 -12.70 77.90 TC 125 9 238
1997 SI MM 09:00:00 TS -12.94 77.73 2130 2130 P____P______P_ SH051997 -12.97 77.53 122 4 -12.87 78.14 4 95 925 -12.97 77.53 TC 122 9 229
1997 SI MM 12:00:00 TS -13.27 77.40 95 925 reunion 2180 2180 O____O______O_ jtwc_sh SH051997 -13.30 77.20 120 4 -13.20 77.80 4 95 925 6.00 6.00 -13.30 77.20 TC 120 9 222
1997 SI MM 15:00:00 TS -13.62 77.09 2183 2146 P____P______P_ SH051997 -13.63 76.91 120 4 -13.60 77.47 4 95 925 -13.63 76.91 TC 120 9 215
1997 SI MM 18:00:00 TS -14.00 76.87 95 925 reunion 2146 2110 O____O______O_ jtwc_sh SH051997 -14.00 76.70 120 4 -14.00 77.20 4 95 925 5.50 6.00 -14.00 76.70 TC 120 8 205
1997 SI MM 21:00:00 TS -14.38 76.74 2110 2098 P____P______P_ SH051997 -14.41 76.61 117 4 -14.31 76.98 4 92 927 -14.41 76.61 TC 117 8 193
1997 SI MM 1996-11-08 00:00:00 TS -14.73 76.70 90 930 reunion 2098 2087 O____O______O_ jtwc_sh SH051997 -14.80 76.60 115 4 -14.60 76.90 4 90 930 5.50 6.00 -14.80 76.60 TC 115 7 181
1997 SI MM 03:00:00 TS -15.04 76.71 2087 2079 P____P______P_ SH051997 -15.11 76.57 112 3 -14.90 77.00 4 87 935 -15.11 76.57 TC 112 6 171
1997 SI MM 06:00:00 TS -15.33 76.80 85 940 reunion 2086 2083 O____O______O_ jtwc_sh SH051997 -15.40 76.60 110 3 -15.20 77.20 4 85 940 5.00 5.50 -15.40 76.60 TC 110 6 160
1997 SI MM 09:00:00 TS -15.62 76.93 2086 2086 P____P______P_ SH051997 -15.69 76.71 110 3 -15.46 77.37 4 82 942 -15.69 76.71 TC 110 7 154
1997 SI MM 12:00:00 TS -15.93 77.10 80 945 reunion 2097 2090 O____O______O_ jtwc_sh SH051997 -16.00 76.90 110 3 -15.80 77.50 4 80 945 4.50 5.50 -16.00 76.90 TC 110 8 157
1997 SI MM 15:00:00 TS -16.33 77.24 2095 2092 P____P______P_ SH051997 -16.32 77.11 107 3 -16.34 77.51 4 75 950 -16.32 77.11 TC 107 9 159
1997 SI MM 18:00:00 TS -16.77 77.43 70 955 reunion 2101 2101 O____O______O_ jtwc_sh SH051997 -16.70 77.40 105 3 -16.90 77.50 4 70 955 4.00 5.00 -16.70 77.40 TC 105 10 152
1997 SI MM 21:00:00 TS -17.20 77.73 2122 2122 P____P______P_ SH051997 -17.19 77.83 102 3 -17.23 77.55 4 65 962 -17.19 77.83 TC 102 11 145
1997 SI MM 1996-11-09 00:00:00 TS -17.67 78.10 60 970 reunion 2152 2152 O____O______O_ jtwc_sh SH051997 -17.70 78.30 100 3 -17.60 77.70 3 60 970 4.00 4.50 -17.70 78.30 TC 100 12 144
1997 SI MM 03:00:00 TS -18.19 78.49 2184 2182 P____P______P_ SH051997 -18.18 78.72 95 2 -18.21 78.03 3 57 972 -18.18 78.72 TC 95 13 145
1997 SI MM 06:00:00 TS -18.70 78.87 55 975 reunion 2217 2215 O____O______O_ jtwc_sh SH051997 -18.60 79.10 90 2 -18.90 78.40 3 55 975 3.50 4.00 -18.60 79.10 TC 90 11 144
1997 SI MM 09:00:00 TS -19.09 79.20 2242 2241 P____P______P_ SH051997 -18.88 79.45 85 2 -19.52 78.70 3 52 977 -18.88 79.45 TC 85 10 146
1997 SI MM 12:00:00 TS -19.50 79.43 50 980 reunion 2258 2258 O____O______O_ jtwc_sh SH051997 -19.20 79.70 80 1 -20.10 78.90 3 50 980 3.00 4.00 -19.20 79.70 TC 80 10 160
1997 SI MM 15:00:00 TS -20.07 79.57 2273 2269 P____P______P_ SH051997 -19.77 79.87 72 1 -20.67 78.97 3 47 982 -19.77 79.87 TC 72 12 172
1997 SI MM 18:00:00 TS -20.63 79.60 45 984 reunion 2269 2267 O____O______O_ jtwc_sh SH051997 -20.40 79.90 65 1 -21.10 79.00 3 45 984 2.00 3.50 -20.40 79.90 TC 65 10 177
1997 SI MM 21:00:00 TS -21.08 79.60 2267 2256 P____P______P_ SH051997 -20.96 79.82 57 0 -21.32 79.16 3 42 985 -20.96 79.82 TC 57 8 187
1997 SI MM 1996-11-10 00:00:00 TS -21.40 79.50 40 987 reunion 2256 2235 O____O______O_ jtwc_sh SH051997 -21.40 79.60 50 0 -21.40 79.30 3 40 987 1.50 3.00 -21.40 79.60 TC 50 6 210
1997 SI MM 03:00:00 TS -21.60 79.27 2235 2204 P____P______P_ SH051997 -21.67 79.27 47 0 -21.47 79.29 3 35 991 -21.67 79.27 TC 47 6 237
1997 SI MM 06:00:00 TS -21.70 79.00 30 995 reunion 2204 2183 O____O______O_ jtwc_sh SH051997 -21.80 78.90 45 0 -21.50 79.20 2 30 995 1.50 2.50 -21.80 78.90 TC 45 5 253
1997 SI MM 09:00:00 TS -21.74 78.80 2183 2162 P____P______P_ SH051997 -21.86 78.63 42 0 -21.48 79.14 2 27 997 -21.86 78.63 TC 42 4 260
1997 SI MM 12:00:00 TS -21.77 78.60 25 1000 reunion 2162 2142 O____O______O_ jtwc_sh SH051997 -21.90 78.40 40 0 -21.50 79.00 2 25 1000 1.50 2.00 -21.90 78.40 TC 40 5 253
1997 SI MM 15:00:00 TS -21.87 78.34 2132 2111 P____P______P_ SH051997 -21.99 78.14 37 0 -21.63 78.75 2 22 1001 -21.99 78.14 TC 37 5 245
1997 SI MM 18:00:00 TS -22.00 78.07 20 1002 reunion 2111 2091 O____O______O_ jtwc_sh SH051997 -22.10 77.90 35 0 -21.80 78.40 2 20 1002 9.90 1.50 -22.10 77.90 TC 35 5 241
1997 SI MM 21:00:00 TS -22.11 77.87 2091 2061 P____P______P_ SH051997 -22.19 77.79 32 -1 -21.95 78.01 2 20 1003 -22.19 77.79 TC 32 5 242
1997 SI MM 1996-11-11 00:00:00 TS -22.23 77.60 20 1004 reunion 2061 2020 O____O______O_ jtwc_sh SH051997 -22.30 77.60 30 -1 -22.10 77.60 2 20 1004 9.90 1.50 -22.30 77.60 TC 30 7 248
1997 SI MM 03:00:00 TS -22.38 77.14 2010 1970 P____P______P_ SH051997 -22.44 77.10 27 -1 -22.26 77.23 2 20 1004 -22.44 77.10 TC 27 9 251
1997 SI MM 06:00:00 TS -22.53 76.63 20 1005 reunion 1960 1920 O____O______O_ jtwc_sh SH051997 -22.60 76.50 25 -1 -22.40 76.90 2 20 1005 9.90 1.50 -22.60 76.50 TC 25 9 251
1997 SI MM 09:00:00 TS -22.67 76.21 1920 1890 P____P______P_ SH051997 -22.76 76.01 25 -1 -22.49 76.62 2 20 1006 -22.76 76.01 TC 25 7 252
1997 SI MM 12:00:00 TS -22.77 75.87 20 1007 reunion 1890 1860 O____O______O_ jtwc_sh SH051997 -22.90 75.60 25 -1 -22.50 76.40 6 20 1007 9.90 -22.90 75.60 TC 25 6 259
1997 SI MM 15:00:00 TS -22.78 75.60 1860 1839 P____P______P_ SH051997 -22.96 75.30 22 -1 -22.40 76.20 6 20 1007 -22.96 75.30 TC 22 5 265
1997 SI MM 18:00:00 TS -22.81 75.37 20 1008 reunion 1839 1820 O____O______O_ jtwc_sh SH051997 -23.00 75.10 20 -1 -22.30 76.10 6 20 1008 9.90 -23.00 75.10 TC 20 4 253
1997 SI MM 21:00:00 TS -22.90 75.17 1820 1801 P____P______P_ SH051997 -23.05 74.93 20 -1 -22.31 76.12 6 20 1008 -23.05 74.93 TC 20 4 241
1997 SI MM 1996-11-12 00:00:00 TS -23.02 74.96 20 1008 reunion 1801 1772 O____O______O_ jtwc_sh SH051997 -23.10 74.80 20 -1 -22.40 76.20 6 20 1008 9.90 -23.10 74.80 TC 20 5 243
1997 SI MM 03:00:00 TS -23.15 74.65 1772 1753 P___________P_ SH051997 -23.15 74.65 17 -1 6 -23.15 74.65 TC 17 5 247
1997 SI MM 06:00:00 TS -23.20 74.50 1753 1743 O___________O_ jtwc_sh SH051997 -23.20 74.50 15 -1 -23.20 74.50 TC 15 3 250
1997 SI MM 09:00:00 TS -23.25 74.35 1744 1724 P___________P_ SH051997 -23.25 74.35 15 -1 -23.25 74.35 TC 15 3 250
1997 SI MM 12:00:00 TS -23.30 74.20 1724 O___________O_ jtwc_sh SH051997 -23.30 74.20 15 -1 -23.30 74.20 TC 15 3 250